Time;durP1;ratioP1;P1;durP2;ratioP2;P2;SDS_P1;SDS_P2;PMS_P1;PMS_P2;Temp;Humidity;BMP_temperature;BMP_pressure;BME280_temperature;BME280_humidity;BME280_pressure;Samples;Min_cycle;Max_cycle;Signal;HPM_P1;HPM_P2
2021/05/06 00:33:32;;;;;;;13.32;4.75;;;;;;;9.10;54.82;98234.44;5019669;28;20054;-67
2021/05/06 00:35:59;;;;;;;14.10;4.43;;;;;;;9.10;54.71;98248.09;5027322;28;20056;-67
2021/05/06 00:38:28;;;;;;;12.52;4.18;;;;;;;9.04;54.81;98229.09;5013409;28;20050;-66
2021/05/06 01:02:28;;;;;;;13.07;4.20;;;;;;;9.19;54.17;98214.34;5039551;28;20058;-67
2021/05/06 01:10:33;;;;;;;10.13;3.50;;;;;;;9.27;54.37;98218.28;5028641;28;20448;-66
2021/05/06 01:13:01;;;;;;;10.30;3.63;;;;;;;9.22;54.31;98218.38;5028377;28;20068;-67
2021/05/06 01:15:27;;;;;;;9.73;3.60;;;;;;;9.22;54.45;98213.75;5021503;28;20056;-66
2021/05/06 01:17:53;;;;;;;10.57;4.22;;;;;;;9.25;54.65;98214.25;5032267;28;20041;-66
2021/05/06 01:20:20;;;;;;;14.25;3.90;;;;;;;9.26;54.50;98213.16;5019118;28;20053;-65
2021/05/06 01:22:48;;;;;;;11.48;3.83;;;;;;;9.28;54.45;98210.91;5018160;28;20418;-68
2021/05/06 01:25:15;;;;;;;10.80;3.47;;;;;;;9.27;54.49;98204.63;5016398;28;20049;-65
2021/05/06 01:33:00;;;;;;;17.20;3.92;;;;;;;9.24;54.84;98197.06;5012507;28;20046;-65
2021/05/06 01:36:32;;;;;;;10.88;3.70;;;;;;;9.30;54.94;98209.50;5018457;28;20053;-67
2021/05/06 01:38:39;;;;;;;13.27;3.70;;;;;;;9.29;55.05;98204.34;5010648;28;20569;-67
2021/05/06 01:41:29;;;;;;;10.25;3.63;;;;;;;9.30;54.89;98198.59;5022788;28;20489;-68
2021/05/06 02:00:00;;;;;;;12.38;3.92;;;;;;;9.44;55.07;98204.03;5051288;28;20537;-66
2021/05/06 02:02:26;;;;;;;14.57;3.95;;;;;;;9.47;55.23;98194.41;5059483;28;20053;-66
2021/05/06 02:04:53;;;;;;;14.68;4.32;;;;;;;9.49;55.43;98192.97;5053093;28;20053;-68
2021/05/06 02:07:21;;;;;;;11.32;3.75;;;;;;;9.50;55.46;98199.25;5048623;28;20067;-66
2021/05/06 02:09:54;;;;;;;12.00;3.85;;;;;;;9.46;55.63;98181.91;5035662;28;20429;-65
2021/05/06 02:12:22;;;;;;;10.15;3.72;;;;;;;9.51;55.50;98190.75;5042535;28;20340;-65
2021/05/06 02:15:00;;;;;;;11.15;3.80;;;;;;;9.55;55.41;98184.69;5044555;28;20068;-66
2021/05/06 02:17:26;;;;;;;9.90;3.55;;;;;;;9.59;55.56;98193.88;5006344;28;20053;-66
2021/05/06 02:19:55;;;;;;;10.35;3.47;;;;;;;9.64;55.32;98188.31;5023961;28;20128;-66
2021/05/06 02:22:22;;;;;;;11.95;3.88;;;;;;;9.63;55.32;98195.69;5021524;28;20553;-66
2021/05/06 02:24:57;;;;;;;12.98;3.50;;;;;;;9.70;55.29;98195.28;5025657;28;20137;-66
2021/05/06 02:27:23;;;;;;;11.15;3.50;;;;;;;9.75;55.49;98192.41;5042485;28;20053;-66
2021/05/06 02:30:04;;;;;;;10.27;3.83;;;;;;;9.73;55.37;98194.66;5017686;28;20168;-67
2021/05/06 02:32:31;;;;;;;10.77;3.65;;;;;;;9.82;55.56;98199.34;5003281;28;20073;-67
2021/05/06 02:34:58;;;;;;;9.55;3.58;;;;;;;9.75;55.39;98172.50;5028547;28;20060;-67
2021/05/06 02:37:24;;;;;;;13.57;4.45;;;;;;;9.92;55.16;98202.69;5017352;28;20506;-65
2021/05/06 02:39:50;;;;;;;12.73;3.88;;;;;;;9.85;55.28;98185.91;5013342;28;20046;-67
2021/05/06 02:42:17;;;;;;;12.27;3.92;;;;;;;10.00;55.23;98190.22;5012565;28;20052;-66
2021/05/06 02:44:44;;;;;;;12.40;4.00;;;;;;;10.01;55.33;98191.00;5019666;28;20127;-65
2021/05/06 02:47:10;;;;;;;8.93;3.80;;;;;;;10.10;55.19;98197.34;5018392;28;20077;-67
2021/05/06 02:49:42;;;;;;;14.45;4.10;;;;;;;10.11;55.25;98198.94;5018449;28;20095;-66
2021/05/06 02:52:26;;;;;;;10.70;3.70;;;;;;;10.17;55.17;98197.69;5013795;28;20133;-67
2021/05/06 02:57:53;;;;;;;11.63;4.22;;;;;;;10.27;55.23;98190.38;5012728;28;20044;-66
2021/05/06 03:03:01;;;;;;;12.32;4.00;;;;;;;10.38;54.95;98189.00;5025138;28;19973;-66
2021/05/06 03:05:30;;;;;;;9.75;3.78;;;;;;;10.47;55.02;98194.53;5013864;28;20069;-64
2021/05/06 03:23:59;;;;;;;11.80;3.90;;;;;;;10.66;55.17;98197.03;5017379;28;20124;-65
2021/05/06 03:26:27;;;;;;;13.80;4.60;;;;;;;10.70;55.09;98203.50;5018712;28;20045;-67
2021/05/06 03:29:07;;;;;;;19.88;4.00;;;;;;;10.74;55.17;98193.53;5016308;28;20458;-67
2021/05/06 04:36:36;;;;;;;12.23;3.58;;;;;;;12.03;54.88;98166.22;5021445;28;20303;-70
2021/05/06 04:39:04;;;;;;;20.00;3.78;;;;;;;12.19;54.54;98164.59;5014191;28;20552;-68
2021/05/06 04:41:50;;;;;;;12.95;3.50;;;;;;;12.26;54.57;98166.81;5009719;28;20521;-68
2021/05/06 04:45:03;;;;;;;13.73;3.70;;;;;;;12.29;54.36;98152.47;5003072;28;20045;-68
2021/05/06 04:55:31;;;;;;;11.35;3.50;;;;;;;12.46;53.99;98148.88;5010727;28;20518;-66
2021/05/06 05:03:42;;;;;;;12.85;3.70;;;;;;;12.75;54.23;98146.50;5029921;28;20061;-66
2021/05/06 05:06:12;;;;;;;13.23;3.88;;;;;;;12.78;54.05;98134.88;5003162;28;20061;-66
2021/05/06 05:08:50;;;;;;;14.15;3.65;;;;;;;12.76;53.94;98137.13;5010744;28;20112;-65
2021/05/06 05:14:41;;;;;;;13.27;3.80;;;;;;;12.74;53.83;98147.63;5045605;28;20490;-67
2021/05/06 05:25:07;;;;;;;11.17;3.63;;;;;;;13.08;53.28;98136.81;5011568;28;20049;-69
2021/05/06 05:27:32;;;;;;;8.03;3.10;;;;;;;13.14;53.66;98132.75;5010397;28;20053;-67
2021/05/06 05:29:58;;;;;;;10.57;3.25;;;;;;;13.23;53.31;98136.25;5025498;28;20502;-69
2021/05/06 05:32:25;;;;;;;15.48;3.92;;;;;;;13.27;53.06;98130.91;5027601;28;20063;-68
2021/05/06 05:37:23;;;;;;;15.93;3.97;;;;;;;13.49;52.84;98123.50;5011397;28;20111;-68
2021/05/06 05:55:37;;;;;;;25.38;4.93;;;;;;;13.96;52.02;98114.19;5030843;28;20057;-67
2021/05/06 05:58:03;;;;;;;18.77;4.40;;;;;;;14.06;51.90;98108.25;5024543;28;20054;-69
2021/05/06 06:00:29;;;;;;;28.67;6.28;;;;;;;14.02;52.10;98105.38;5018124;28;20044;-68
2021/05/06 06:02:55;;;;;;;34.70;7.38;;;;;;;14.11;52.11;98090.75;5027525;28;20045;-67
2021/05/06 06:05:23;;;;;;;36.60;7.20;;;;;;;14.07;52.13;98089.84;5024437;28;20057;-70
2021/05/06 06:07:51;;;;;;;20.70;5.00;;;;;;;14.04;51.69;98089.34;5013974;28;20045;-66
2021/05/06 06:10:19;;;;;;;21.10;5.03;;;;;;;14.23;51.34;98107.28;5016657;28;20105;-69
2021/05/06 06:12:45;;;;;;;24.73;5.97;;;;;;;14.18;51.21;98083.56;5023496;28;20476;-70
2021/05/06 06:15:22;;;;;;;30.87;5.90;;;;;;;14.35;50.83;98090.00;5032861;28;20049;-68
2021/05/06 06:17:49;;;;;;;21.10;6.40;;;;;;;14.46;50.98;98093.91;5017881;28;20332;-68
2021/05/06 06:20:15;;;;;;;23.10;5.35;;;;;;;14.46;50.83;98073.84;5000555;28;20188;-68
2021/05/06 06:22:43;;;;;;;18.27;5.10;;;;;;;14.61;50.68;98066.88;4996448;28;20042;-67
2021/05/06 06:25:10;;;;;;;21.10;5.32;;;;;;;14.64;50.67;98087.38;5023043;28;20061;-69
2021/05/06 06:27:38;;;;;;;28.08;5.35;;;;;;;14.75;50.27;98066.56;5017742;28;20461;-66
2021/05/06 06:30:07;;;;;;;22.40;4.72;;;;;;;14.77;49.72;98061.50;5005861;28;20240;-69
2021/05/06 06:32:34;;;;;;;17.60;4.03;;;;;;;14.57;49.43;98053.00;5015914;28;20418;-69
2021/05/06 06:35:02;;;;;;;33.10;4.50;;;;;;;14.72;49.47;98067.25;4985882;28;20050;-70
2021/05/06 06:37:28;;;;;;;23.58;4.05;;;;;;;14.64;49.45;98035.94;5023070;28;20056;-69
2021/05/06 06:39:54;;;;;;;19.95;3.80;;;;;;;14.69;49.12;98032.16;5013829;28;20451;-70
2021/05/06 06:42:21;;;;;;;17.50;4.18;;;;;;;14.90;49.08;98048.53;5011822;28;20112;-70
2021/05/06 06:44:49;;;;;;;17.83;4.68;;;;;;;15.09;48.84;98044.38;5013212;28;20493;-69
2021/05/06 06:47:15;;;;;;;20.98;4.28;;;;;;;15.08;48.73;98051.03;5018490;28;20096;-70
2021/05/06 06:49:42;;;;;;;18.77;5.47;;;;;;;15.07;48.67;98024.66;5008708;28;20046;-69
2021/05/06 06:52:10;;;;;;;20.63;4.47;;;;;;;15.09;48.04;98025.91;5032180;28;20076;-69
2021/05/06 06:54:37;;;;;;;23.05;4.55;;;;;;;15.16;48.07;98019.81;5019433;28;20073;-69
2021/05/06 06:57:04;;;;;;;34.30;4.75;;;;;;;15.22;47.52;98006.59;5013221;28;20092;-69
2021/05/06 06:59:31;;;;;;;22.60;4.53;;;;;;;15.38;47.21;98014.94;4996110;28;20477;-69
2021/05/06 07:01:58;;;;;;;18.70;4.30;;;;;;;15.42;46.69;97986.31;4995824;28;20042;-70
2021/05/06 07:04:26;;;;;;;14.52;4.03;;;;;;;15.44;46.30;98008.78;5013746;28;20323;-69
2021/05/06 07:06:52;;;;;;;19.02;4.00;;;;;;;15.54;46.28;97990.16;5013138;28;20470;-69
2021/05/06 07:09:18;;;;;;;16.63;4.70;;;;;;;15.59;46.07;98009.19;4994559;28;20052;-69
2021/05/06 07:11:44;;;;;;;25.92;4.93;;;;;;;15.69;46.13;97988.63;5003297;28;20544;-68
2021/05/06 07:14:10;;;;;;;18.88;3.42;;;;;;;15.56;46.37;98001.63;5025962;28;20414;-69
2021/05/06 07:16:37;;;;;;;18.17;4.18;;;;;;;15.66;46.29;98009.41;5011840;28;20133;-69
2021/05/06 07:19:05;;;;;;;18.15;3.70;;;;;;;15.64;45.79;98002.63;5013006;28;20049;-71
2021/05/06 07:21:31;;;;;;;21.00;3.97;;;;;;;15.57;46.11;98012.31;5013426;28;20049;-70
2021/05/06 07:23:58;;;;;;;10.45;2.97;;;;;;;15.56;45.61;97980.41;4997812;28;20549;-68
2021/05/06 07:26:26;;;;;;;;;;;;;;;15.58;45.50;98002.06;4999942;28;20176;-69
2021/05/06 07:28:55;;;;;;;7.63;2.53;;;;;;;15.80;45.63;98000.69;5007652;28;19964;-69
2021/05/06 07:31:22;;;;;;;23.73;3.63;;;;;;;15.99;44.57;97979.94;5016680;28;20073;-70
2021/05/06 07:33:49;;;;;;;7.88;2.35;;;;;;;16.01;44.27;97996.94;5030756;28;20416;-70
2021/05/06 07:36:18;;;;;;;8.25;2.50;;;;;;;16.08;44.23;97988.03;5040777;28;20518;-69
2021/05/06 07:38:45;;;;;;;13.25;2.60;;;;;;;16.23;44.60;97998.25;5011642;28;20136;-67
2021/05/06 07:41:13;;;;;;;13.50;2.88;;;;;;;16.24;44.15;97971.50;5030499;28;20503;-68
2021/05/06 07:43:43;;;;;;;17.95;3.10;;;;;;;16.16;43.84;97984.31;5012570;28;20046;-70
2021/05/06 07:46:10;;;;;;;13.52;3.13;;;;;;;15.89;44.30;97959.22;5017127;28;20164;-69
2021/05/06 07:48:38;;;;;;;21.75;3.25;;;;;;;16.08;44.40;97983.31;5029999;28;20123;-67
2021/05/06 07:51:05;;;;;;;16.50;2.65;;;;;;;16.04;44.36;97962.34;5031142;28;20045;-68
2021/05/06 07:53:43;;;;;;;9.57;2.45;;;;;;;16.09;44.28;97973.91;5031269;28;20041;-69
2021/05/06 07:56:09;;;;;;;14.75;2.85;;;;;;;16.25;44.17;97957.34;5022120;28;20042;-68
2021/05/06 07:58:35;;;;;;;15.55;3.28;;;;;;;16.40;44.45;97963.22;5027871;28;20054;-69
2021/05/06 08:01:02;;;;;;;15.75;3.47;;;;;;;16.49;44.65;97974.81;5015897;28;20056;-69
2021/05/06 08:03:28;;;;;;;8.75;2.70;;;;;;;16.62;43.75;97944.38;5027825;28;20052;-69
2021/05/06 08:05:57;;;;;;;25.48;3.05;;;;;;;16.52;44.01;97954.78;5022914;28;20041;-67
2021/05/06 08:08:24;;;;;;;14.55;2.85;;;;;;;16.71;43.14;97959.56;5019197;28;20046;-68
2021/05/06 08:10:52;;;;;;;25.25;2.70;;;;;;;16.58;42.95;97913.94;5025305;28;20460;-70
2021/05/06 08:13:20;;;;;;;10.40;2.50;;;;;;;16.67;42.96;97964.19;5020699;28;20053;-69
2021/05/06 08:15:47;;;;;;;23.38;3.25;;;;;;;16.71;43.22;97986.38;4999154;28;20054;-70
2021/05/06 08:18:13;;;;;;;21.13;3.10;;;;;;;16.48;43.18;97958.66;5015509;28;20046;-70
2021/05/06 08:20:41;;;;;;;15.40;3.33;;;;;;;16.42;43.17;97963.63;5017166;28;20139;-72
2021/05/06 08:23:09;;;;;;;12.95;2.60;;;;;;;16.45;43.27;97954.66;5021971;28;20129;-72
2021/05/06 08:25:36;;;;;;;23.90;3.08;;;;;;;16.49;43.29;97972.06;5018507;28;20055;-72
2021/05/06 08:28:04;;;;;;;22.30;3.40;;;;;;;16.46;43.36;97961.75;5022096;28;20137;-71
2021/05/06 08:30:31;;;;;;;11.80;2.40;;;;;;;16.58;43.53;97967.16;5020413;28;20112;-71
2021/05/06 08:32:58;;;;;;;10.75;2.50;;;;;;;16.65;43.29;98007.91;5014321;28;20172;-72
2021/05/06 08:35:24;;;;;;;10.07;2.65;;;;;;;16.75;43.18;97973.44;5021312;28;20052;-71
2021/05/06 08:37:50;;;;;;;14.23;2.83;;;;;;;16.85;43.43;97981.13;5017918;28;20049;-70
2021/05/06 08:40:16;;;;;;;12.50;2.90;;;;;;;17.00;42.95;97979.53;5017791;28;20460;-71
2021/05/06 08:42:42;;;;;;;12.48;2.65;;;;;;;16.97;42.83;97968.38;5017755;28;20053;-69
2021/05/06 08:45:11;;;;;;;8.45;2.72;;;;;;;17.08;42.77;97969.41;5028486;28;20084;-67
2021/05/06 08:47:38;;;;;;;24.52;3.05;;;;;;;17.03;43.06;97910.94;5014609;28;20382;-68
2021/05/06 08:50:05;;;;;;;18.15;2.75;;;;;;;16.90;43.31;97957.97;5030317;28;20391;-67
2021/05/06 08:52:35;;;;;;;10.25;2.90;;;;;;;16.75;44.19;97970.69;5015282;28;20096;-68
2021/05/06 08:55:04;;;;;;;23.15;3.50;;;;;;;16.57;45.57;97993.16;5012607;28;20115;-68
2021/05/06 08:57:32;;;;;;;37.17;3.47;;;;;;;16.10;48.34;98047.16;5015360;28;20077;-68
2021/05/06 08:59:58;;;;;;;16.10;3.08;;;;;;;15.58;52.66;98038.69;5018459;28;20057;-70
2021/05/06 09:02:27;;;;;;;8.93;2.80;;;;;;;14.89;55.42;98031.22;5011642;28;20141;-68
2021/05/06 09:04:54;;;;;;;12.55;2.92;;;;;;;14.80;56.10;98052.56;5011205;28;20461;-67
2021/05/06 09:07:21;;;;;;;9.50;2.85;;;;;;;14.65;57.16;98058.72;5012644;28;20422;-70
2021/05/06 09:09:51;;;;;;;11.18;3.10;;;;;;;14.50;57.08;98072.00;5020865;28;20060;-74
2021/05/06 09:12:36;;;;;;;11.25;3.30;;;;;;;14.42;56.71;98090.22;5004489;28;20048;-74
2021/05/06 09:15:15;;;;;;;12.48;3.40;;;;;;;14.42;57.45;98092.19;5022577;28;20049;-75
2021/05/06 09:17:44;;;;;;;11.48;3.17;;;;;;;14.43;57.45;98097.31;5026774;28;20530;-74
2021/05/06 09:20:16;;;;;;;9.45;3.40;;;;;;;14.27;57.93;98077.16;5020662;28;20054;-75
2021/05/06 09:22:47;;;;;;;12.40;2.97;;;;;;;14.10;58.21;98100.94;5021019;28;20521;-76
2021/05/06 09:25:31;;;;;;;8.20;3.00;;;;;;;14.20;58.44;98096.16;5016598;28;20057;-75
2021/05/06 09:28:11;;;;;;;12.98;3.45;;;;;;;14.14;58.35;98098.31;5023197;28;20411;-75
2021/05/06 09:30:54;;;;;;;8.65;2.97;;;;;;;14.28;58.26;98100.75;5022114;28;20065;-75
2021/05/06 09:33:33;;;;;;;9.15;3.60;;;;;;;14.49;57.94;98099.88;5017288;28;20053;-75
2021/05/06 09:36:13;;;;;;;9.18;3.42;;;;;;;14.68;57.70;98091.84;5030138;28;20057;-75
2021/05/06 09:38:42;;;;;;;8.90;3.00;;;;;;;15.09;56.17;98080.94;5023032;28;20037;-74
2021/05/06 09:41:12;;;;;;;10.60;3.30;;;;;;;15.29;54.94;98054.41;5023035;28;20045;-75
2021/05/06 09:43:43;;;;;;;9.10;3.05;;;;;;;15.53;53.99;98062.94;5041035;28;20063;-75
2021/05/06 09:46:25;;;;;;;11.05;3.22;;;;;;;15.63;53.24;98056.94;5019268;28;20169;-74
2021/05/06 09:48:57;;;;;;;13.88;5.57;;;;;;;15.72;52.17;98051.28;5016652;28;20144;-75
2021/05/06 09:51:36;;;;;;;10.95;3.40;;;;;;;15.82;52.22;98055.47;5028417;28;20057;-72
2021/05/06 09:54:05;;;;;;;21.40;12.02;;;;;;;15.99;52.17;98046.91;5002032;28;20050;-73
2021/05/06 09:56:32;;;;;;;10.75;3.15;;;;;;;16.07;51.82;98045.13;5024189;28;20137;-74
2021/05/06 09:59:00;;;;;;;9.07;3.35;;;;;;;15.96;51.45;98030.25;5019076;28;20084;-75
2021/05/06 10:01:34;;;;;;;10.27;3.33;;;;;;;15.96;51.22;98042.09;5004195;28;20045;-73
2021/05/06 10:04:17;;;;;;;9.35;3.03;;;;;;;15.84;51.47;98039.38;5027168;28;20524;-74
2021/05/06 10:07:05;;;;;;;9.95;3.30;;;;;;;15.69;51.77;98047.25;5033578;28;20052;-75
2021/05/06 10:09:32;;;;;;;9.50;3.13;;;;;;;15.58;52.56;98059.91;5029725;28;20056;-73
2021/05/06 10:11:59;;;;;;;10.95;3.00;;;;;;;15.59;52.16;98056.81;5024611;28;20045;-73
2021/05/06 10:14:26;;;;;;;;;;;;;;;15.52;51.90;98078.66;5020764;28;20091;-75
2021/05/06 10:16:52;;;;;;;8.45;3.10;;;;;;;15.54;51.62;98075.56;5020818;28;20305;-73
2021/05/06 10:19:19;;;;;;;10.43;3.33;;;;;;;15.43;52.06;98056.75;4998472;28;20119;-75
2021/05/06 10:21:47;;;;;;;8.43;3.08;;;;;;;15.15;53.09;98054.81;5021599;28;20065;-74
2021/05/06 10:24:15;;;;;;;11.05;2.95;;;;;;;15.08;53.68;98082.09;5027520;28;20056;-74
2021/05/06 10:26:44;;;;;;;8.30;3.35;;;;;;;14.88;54.17;98098.41;5023135;28;20055;-74
2021/05/06 10:29:11;;;;;;;10.68;2.80;;;;;;;14.49;55.32;98039.38;5017711;28;20048;-72
2021/05/06 10:31:39;;;;;;;7.40;2.45;;;;;;;14.28;55.57;98101.56;5020138;28;20054;-72
2021/05/06 10:34:06;;;;;;;9.73;2.63;;;;;;;14.11;55.92;98107.25;5012960;28;20058;-72
2021/05/06 10:36:34;;;;;;;11.57;2.60;;;;;;;13.99;56.46;98141.78;5015785;28;20053;-71
2021/05/06 10:39:01;;;;;;;7.60;2.35;;;;;;;13.84;57.80;98124.00;5028225;28;20088;-72
2021/05/06 10:41:32;;;;;;;8.25;2.47;;;;;;;13.75;57.83;98095.81;5033997;28;20053;-72
2021/05/06 10:43:59;;;;;;;6.78;2.60;;;;;;;13.90;57.46;98119.09;5022629;28;20049;-73
2021/05/06 10:47:01;;;;;;;7.90;2.60;;;;;;;13.87;57.97;98120.56;5028505;28;20056;-72
2021/05/06 10:49:28;;;;;;;11.43;2.65;;;;;;;13.74;58.69;98121.66;5024899;28;20037;-72
2021/05/06 10:52:01;;;;;;;7.10;2.35;;;;;;;13.69;58.17;98116.38;5026196;28;20046;-70
2021/05/06 10:54:37;;;;;;;7.55;2.60;;;;;;;13.70;58.04;98121.53;5025970;28;20168;-70
2021/05/06 10:57:27;;;;;;;6.97;2.40;;;;;;;13.47;58.34;98121.88;5031631;28;20481;-69
2021/05/06 10:59:54;;;;;;;7.32;2.22;;;;;;;13.37;58.31;98141.47;5031307;28;20052;-70
2021/05/06 11:02:49;;;;;;;7.32;2.85;;;;;;;13.29;59.75;98114.91;5033623;28;20053;-71
2021/05/06 11:05:17;;;;;;;8.63;2.85;;;;;;;13.15;59.59;98123.38;5014619;28;20042;-78
2021/05/06 11:08:09;;;;;;;;;;;;;;;13.04;59.91;98109.25;5034018;28;20045;-74
2021/05/06 11:11:14;;;;;;;11.13;3.60;;;;;;;12.76;60.95;98094.09;5002004;28;19952;-74
2021/05/06 11:14:05;;;;;;;9.25;3.00;;;;;;;12.81;61.05;98089.53;5007642;28;20358;-70
2021/05/06 11:16:32;;;;;;;14.05;3.58;;;;;;;12.79;60.97;98103.56;4999606;28;20090;-70
2021/05/06 11:19:00;;;;;;;15.63;5.35;;;;;;;12.76;60.97;98094.09;5012685;28;20057;-73
2021/05/06 11:21:40;;;;;;;10.05;2.95;;;;;;;12.83;60.80;98087.25;5018081;28;20128;-72
2021/05/06 11:24:18;;;;;;;11.35;3.50;;;;;;;12.62;62.21;98069.63;4994714;28;20050;-66
2021/05/06 11:27:20;;;;;;;8.70;3.55;;;;;;;12.46;62.84;98071.31;4995706;28;20051;-72
2021/05/06 11:29:47;;;;;;;12.65;4.07;;;;;;;12.57;62.22;98090.97;4992048;28;20549;-72
2021/05/06 11:32:24;;;;;;;19.05;5.00;;;;;;;12.61;62.41;98069.97;5009466;28;20053;-72
2021/05/06 11:34:51;;;;;;;18.50;5.03;;;;;;;12.61;62.34;98064.50;5006086;28;20058;-70
2021/05/06 11:37:18;;;;;;;;;;;;;;;12.67;61.39;98074.13;5007822;28;20038;-71
2021/05/06 11:39:47;;;;;;;21.20;6.40;;;;;;;12.71;61.13;98071.53;5004132;28;19936;-72
2021/05/06 11:42:14;;;;;;;18.55;5.40;;;;;;;12.73;61.11;98063.78;5002146;28;20138;-73
2021/05/06 11:44:40;;;;;;;11.13;3.42;;;;;;;12.67;60.86;98057.66;5004296;28;20136;-72
2021/05/06 11:47:06;;;;;;;15.18;4.20;;;;;;;12.73;61.07;98058.28;5007427;28;20057;-73
2021/05/06 11:49:32;;;;;;;18.92;5.55;;;;;;;12.69;61.13;98052.66;5004693;28;20045;-74
2021/05/06 11:51:59;;;;;;;19.63;5.15;;;;;;;12.94;60.86;98032.81;4999412;28;20090;-71
2021/05/06 11:54:29;;;;;;;17.88;4.70;;;;;;;12.96;60.73;98027.81;4997927;28;20066;-72
2021/05/06 11:56:58;;;;;;;20.52;5.25;;;;;;;12.89;61.04;98029.13;5003200;28;20050;-72
2021/05/06 11:59:26;;;;;;;22.80;5.78;;;;;;;12.88;61.13;98035.75;5008742;28;20145;-69
2021/05/06 12:01:53;;;;;;;37.67;7.15;;;;;;;12.80;60.98;98033.91;5001171;28;20051;-75
2021/05/06 12:04:24;;;;;;;21.20;4.75;;;;;;;12.83;61.17;98026.94;4998768;28;20607;-74
2021/05/06 12:06:50;;;;;;;15.35;4.53;;;;;;;12.78;61.52;98030.66;5001550;28;20065;-75
2021/05/06 12:09:22;;;;;;;12.80;4.63;;;;;;;12.82;61.60;98028.88;5010094;28;20042;-72
2021/05/06 12:11:49;;;;;;;18.95;4.93;;;;;;;12.77;61.96;98035.34;4993465;28;20050;-73
2021/05/06 12:14:16;;;;;;;15.03;4.07;;;;;;;12.67;62.28;98037.69;5007079;28;20058;-70
2021/05/06 12:16:42;;;;;;;19.02;4.68;;;;;;;12.74;62.23;98040.69;4998173;28;20091;-74
2021/05/06 12:19:10;;;;;;;20.08;6.68;;;;;;;12.82;62.15;98022.56;4992465;28;20050;-73
2021/05/06 12:21:39;;;;;;;14.75;5.05;;;;;;;12.67;62.28;98011.06;4993823;28;20045;-71
2021/05/06 12:24:08;;;;;;;22.08;5.28;;;;;;;12.72;62.52;98012.81;5010804;28;20054;-73
2021/05/06 12:26:34;;;;;;;26.17;5.05;;;;;;;12.73;62.38;98039.09;4992135;28;20049;-72
2021/05/06 12:29:01;;;;;;;15.07;4.87;;;;;;;12.70;62.74;98018.63;5012664;28;20132;-79
2021/05/06 12:31:29;;;;;;;16.60;5.55;;;;;;;12.65;62.92;98007.84;4988021;28;20530;-76
2021/05/06 12:33:58;;;;;;;14.43;5.68;;;;;;;12.66;63.42;98008.66;5004831;28;20049;-75
2021/05/06 12:36:24;;;;;;;17.55;6.32;;;;;;;12.69;63.56;97992.34;4992892;28;20049;-76
2021/05/06 12:38:52;;;;;;;19.92;6.95;;;;;;;12.64;63.67;97992.53;4999759;28;20049;-72
2021/05/06 12:41:18;;;;;;;;;;;;;;;12.71;63.98;97994.75;4989589;28;20121;-72
2021/05/06 12:43:46;;;;;;;21.02;7.47;;;;;;;12.72;63.97;97999.91;4990837;28;19926;-72
2021/05/06 12:46:13;;;;;;;17.92;6.90;;;;;;;12.73;64.19;97993.28;4990106;28;20054;-74
2021/05/06 12:48:42;;;;;;;18.40;5.97;;;;;;;12.93;63.72;97982.66;4989435;28;20050;-74
2021/05/06 12:51:11;;;;;;;10.48;4.20;;;;;;;13.12;63.47;97973.13;5000496;28;20053;-76
2021/05/06 12:53:58;;;;;;;13.38;4.03;;;;;;;13.10;63.22;97957.00;4991158;28;20133;-73
2021/05/06 12:56:25;;;;;;;;;;;;;;;13.36;62.31;97971.63;5000820;28;20055;-72
2021/05/06 12:58:51;;;;;;;16.23;4.50;;;;;;;13.33;62.35;97957.44;4991640;28;19961;-76
2021/05/06 13:01:30;;;;;;;12.68;4.30;;;;;;;13.56;61.75;97976.28;4995265;28;20049;-75
2021/05/06 13:04:03;;;;;;;13.35;4.10;;;;;;;13.67;61.28;97959.41;5001170;28;20556;-78
2021/05/06 13:06:34;;;;;;;15.07;4.30;;;;;;;13.82;60.57;97952.44;4998219;28;20037;-75
2021/05/06 13:09:11;;;;;;;12.77;4.72;;;;;;;13.71;60.39;97958.34;5004578;28;20133;-75
2021/05/06 13:11:37;;;;;;;17.20;4.28;;;;;;;13.71;60.47;97961.09;5002055;28;20042;-72
2021/05/06 13:14:04;;;;;;;16.27;5.57;;;;;;;13.76;60.30;97946.34;4998155;28;20588;-66
2021/05/06 13:16:44;;;;;;;14.27;5.33;;;;;;;13.69;59.87;97951.63;5003552;28;20050;-72
2021/05/06 13:19:19;;;;;;;20.95;6.60;;;;;;;13.71;59.64;97952.84;5004195;28;20312;-73
2021/05/06 13:21:47;;;;;;;20.40;5.70;;;;;;;13.79;59.32;97964.88;5011228;28;20050;-71
2021/05/06 13:24:13;;;;;;;16.45;5.15;;;;;;;13.79;58.96;97942.13;5006372;28;20120;-74
2021/05/06 13:26:41;;;;;;;20.88;6.78;;;;;;;13.84;59.24;97956.44;5007283;28;20133;-74
2021/05/06 13:29:13;;;;;;;25.77;8.27;;;;;;;13.90;59.06;97949.56;5015512;28;20046;-71
2021/05/06 13:31:43;;;;;;;22.98;6.30;;;;;;;13.98;58.55;97938.84;4978058;28;20064;-73
2021/05/06 13:34:17;;;;;;;22.52;7.20;;;;;;;14.08;58.40;97943.06;5033437;28;20049;-71
2021/05/06 13:36:45;;;;;;;21.95;6.97;;;;;;;14.26;57.53;97941.69;5034897;28;20049;-73
2021/05/06 13:39:13;;;;;;;25.75;7.50;;;;;;;14.36;57.41;97923.09;5006945;28;20129;-73
2021/05/06 13:41:41;;;;;;;26.35;5.32;;;;;;;14.50;56.57;97928.25;4996633;28;20042;-70
2021/05/06 13:44:09;;;;;;;17.15;4.20;;;;;;;14.46;55.36;97917.13;4998394;28;20060;-73
2021/05/06 13:46:44;;;;;;;11.27;3.75;;;;;;;14.52;54.92;97882.75;5000235;28;20074;-72
2021/05/06 13:49:13;;;;;;;12.98;3.65;;;;;;;14.41;54.61;97923.66;5017608;28;20548;-72
2021/05/06 13:51:40;;;;;;;12.77;3.30;;;;;;;14.53;53.09;97936.63;4993198;28;20053;-75
2021/05/06 13:54:06;;;;;;;8.80;3.03;;;;;;;14.54;53.35;97938.22;5014356;28;20664;-74
2021/05/06 13:56:33;;;;;;;8.73;3.10;;;;;;;14.54;52.10;97951.16;5015996;28;20046;-72
2021/05/06 13:59:00;;;;;;;11.95;3.15;;;;;;;14.50;50.26;97926.28;5001505;28;20272;-72
2021/05/06 14:01:26;;;;;;;9.57;2.80;;;;;;;14.43;49.53;97934.31;5011546;28;20556;-73
2021/05/06 14:03:52;;;;;;;15.27;3.08;;;;;;;14.41;49.01;97933.88;5010832;28;20049;-72
2021/05/06 14:06:18;;;;;;;10.52;2.78;;;;;;;14.32;48.78;97958.75;5006945;28;20136;-74
2021/05/06 14:08:49;;;;;;;;;;;;;;;14.29;48.06;97962.97;5010346;28;20115;-71
2021/05/06 14:11:15;;;;;;;9.18;2.70;;;;;;;14.25;47.99;97929.09;5014912;28;19960;-72
2021/05/06 14:13:41;;;;;;;10.23;2.58;;;;;;;14.31;47.90;97943.41;5003567;28;20057;-75
2021/05/06 14:16:07;;;;;;;10.35;2.80;;;;;;;14.36;47.89;97969.84;4994698;28;20058;-72
2021/05/06 14:18:34;;;;;;;7.35;2.60;;;;;;;14.34;47.66;97959.19;4976661;28;20044;-71
2021/05/06 14:21:04;;;;;;;9.18;2.40;;;;;;;14.30;47.73;97948.09;4996769;28;20046;-74
2021/05/06 14:23:35;;;;;;;9.95;2.90;;;;;;;14.39;47.72;97949.91;5011320;28;20145;-74
2021/05/06 14:26:03;;;;;;;11.93;2.90;;;;;;;14.38;47.62;97962.06;5013750;28;20070;-73
2021/05/06 14:28:29;;;;;;;12.23;2.88;;;;;;;14.41;47.99;97967.66;5010896;28;20042;-75
2021/05/06 14:30:55;;;;;;;8.43;2.70;;;;;;;14.34;48.12;97953.69;4992990;28;20204;-75
2021/05/06 14:33:21;;;;;;;9.93;2.72;;;;;;;14.33;48.38;97966.63;4976865;28;20042;-75
2021/05/06 14:35:48;;;;;;;11.00;2.92;;;;;;;14.31;48.37;97973.63;4996306;28;20054;-73
2021/05/06 14:38:14;;;;;;;9.70;3.00;;;;;;;14.28;48.58;97957.81;4992071;28;20097;-71
2021/05/06 14:40:41;;;;;;;11.50;2.97;;;;;;;14.27;48.61;97970.75;5001074;28;20453;-72
2021/05/06 14:43:08;;;;;;;9.05;2.80;;;;;;;14.19;49.11;97960.69;4996209;28;20052;-71
2021/05/06 14:45:35;;;;;;;6.63;2.50;;;;;;;14.19;49.39;97993.66;5012101;28;20053;-74
2021/05/06 14:48:04;;;;;;;8.80;2.45;;;;;;;14.14;49.53;97952.66;5009560;28;20073;-71
2021/05/06 14:50:31;;;;;;;7.70;2.60;;;;;;;14.08;49.41;97973.28;5007837;28;20487;-71
2021/05/06 14:52:57;;;;;;;13.77;2.50;;;;;;;13.85;50.22;97952.56;5013475;28;20116;-73
2021/05/06 14:55:25;;;;;;;9.23;2.65;;;;;;;13.89;50.47;97986.44;4994105;28;20096;-73
2021/05/06 14:57:52;;;;;;;8.88;2.70;;;;;;;13.83;50.69;97987.00;5013121;28;20123;-73
2021/05/06 15:00:21;;;;;;;10.57;2.65;;;;;;;13.79;51.05;97959.38;5031804;28;20520;-72
2021/05/06 15:02:47;;;;;;;8.18;2.70;;;;;;;13.82;51.03;97955.16;5012716;28;20049;-71
2021/05/06 15:05:14;;;;;;;7.53;2.50;;;;;;;13.79;51.85;97988.81;4994563;28;20054;-72
2021/05/06 15:07:42;;;;;;;8.82;3.03;;;;;;;13.71;51.95;97991.31;5011755;28;20074;-73
2021/05/06 15:10:08;;;;;;;;;;;;;;;13.71;51.97;97988.56;5012466;28;20045;-72
2021/05/06 15:12:35;;;;;;;9.30;2.60;;;;;;;13.69;52.32;97990.06;5013304;28;20012;-72